Time;durP1;ratioP1;P1;durP2;ratioP2;P2;SDS_P1;SDS_P2;PMS_P1;PMS_P2;Temp;Humidity;BMP_temperature;BMP_pressure;BME280_temperature;BME280_humidity;BME280_pressure;Samples;Min_cycle;Max_cycle;Signal;HPM_P1;HPM_P2
2022/10/15 00:02:12;;;;;;;57.60;2.27;;;;;;;;;;5111923;28;20446;-72
2022/10/15 00:04:39;;;;;;;57.27;2.50;;;;;;;;;;5111874;28;20816;-70
2022/10/15 00:07:06;;;;;;;57.20;2.37;;;;;;;;;;5111807;28;20496;-71
2022/10/15 00:09:35;;;;;;;57.50;2.57;;;;;;;;;;5111661;28;20985;-71
2022/10/15 00:12:02;;;;;;;57.40;2.17;;;;;;;;;;5112089;28;20441;-70
2022/10/15 00:14:29;;;;;;;57.27;2.40;;;;;;;;;;5111614;28;20966;-70
2022/10/15 00:16:56;;;;;;;57.30;2.30;;;;;;;;;;5112419;28;20475;-71
2022/10/15 00:19:23;;;;;;;57.23;2.23;;;;;;;;;;5111535;28;20441;-71
2022/10/15 00:21:51;;;;;;;57.47;2.30;;;;;;;;;;5112013;28;20452;-71
2022/10/15 00:24:18;;;;;;;57.33;2.73;;;;;;;;;;5111941;28;20828;-70
2022/10/15 00:26:46;;;;;;;57.30;2.20;;;;;;;;;;5111581;28;20468;-71
2022/10/15 00:29:13;;;;;;;57.50;2.53;;;;;;;;;;5113098;28;20819;-71
2022/10/15 00:31:40;;;;;;;57.40;2.30;;;;;;;;;;5115640;28;20449;-71
2022/10/15 00:34:07;;;;;;;57.50;2.47;;;;;;;;;;5115370;28;20461;-71
2022/10/15 00:36:35;;;;;;;57.03;2.30;;;;;;;;;;5115520;28;20498;-71
2022/10/15 00:39:04;;;;;;;57.37;2.23;;;;;;;;;;5115143;27;20452;-70
2022/10/15 00:41:32;;;;;;;57.30;2.17;;;;;;;;;;5115406;28;20472;-71
2022/10/15 00:44:01;;;;;;;57.13;2.30;;;;;;;;;;5115781;28;20477;-71
2022/10/15 00:46:31;;;;;;;57.13;2.40;;;;;;;;;;5115106;28;20477;-71
2022/10/15 00:49:01;;;;;;;57.27;2.40;;;;;;;;;;5114851;28;20479;-71
2022/10/15 00:51:31;;;;;;;57.17;2.30;;;;;;;;;;5115236;28;20445;-70
2022/10/15 00:53:59;;;;;;;57.30;2.40;;;;;;;;;;5115149;28;20445;-71
2022/10/15 00:56:27;;;;;;;57.60;2.87;;;;;;;;;;5115067;28;20483;-71
2022/10/15 00:58:56;;;;;;;57.03;2.20;;;;;;;;;;5114742;28;20968;-71
2022/10/15 01:01:25;;;;;;;57.27;2.20;;;;;;;;;;5115120;28;20438;-70
2022/10/15 01:03:52;;;;;;;57.80;2.50;;;;;;;;;;5114987;28;20477;-71
2022/10/15 01:06:19;;;;;;;57.27;2.50;;;;;;;;;;5114834;28;20473;-71
2022/10/15 01:08:46;;;;;;;57.23;2.40;;;;;;;;;;5114804;28;20445;-70
2022/10/15 01:11:18;;;;;;;56.97;2.20;;;;;;;;;;5114882;27;20792;-71
2022/10/15 01:13:50;;;;;;;57.60;2.40;;;;;;;;;;5114621;27;20442;-70
2022/10/15 01:16:19;;;;;;;57.37;2.30;;;;;;;;;;5115025;28;20469;-70
2022/10/15 01:18:51;;;;;;;57.33;2.40;;;;;;;;;;5114308;28;20461;-71
2022/10/15 01:21:22;;;;;;;57.20;2.40;;;;;;;;;;5114872;28;20829;-70
2022/10/15 01:24:17;;;;;;;56.97;2.40;;;;;;;;;;5114140;28;20488;-70
2022/10/15 01:27:03;;;;;;;57.30;2.30;;;;;;;;;;5114880;28;20831;-71
2022/10/15 01:29:49;;;;;;;57.07;2.10;;;;;;;;;;5114309;28;20453;-71
2022/10/15 01:32:20;;;;;;;57.10;2.30;;;;;;;;;;5114511;28;20445;-72
2022/10/15 01:34:51;;;;;;;57.10;2.30;;;;;;;;;;5113976;28;20453;-70
2022/10/15 01:37:21;;;;;;;57.50;2.37;;;;;;;;;;5114317;28;20466;-71
2022/10/15 01:39:51;;;;;;;57.27;2.43;;;;;;;;;;5113669;27;20445;-71
2022/10/15 01:42:23;;;;;;;57.23;2.33;;;;;;;;;;5114391;28;20446;-70
2022/10/15 01:44:52;;;;;;;57.20;2.30;;;;;;;;;;5114126;28;20477;-70
2022/10/15 01:47:23;;;;;;;57.30;2.30;;;;;;;;;;5112171;28;20509;-71
2022/10/15 01:49:53;;;;;;;57.37;2.30;;;;;;;;;;5113914;28;20817;-71
2022/10/15 01:52:22;;;;;;;57.20;2.30;;;;;;;;;;5113971;28;20449;-70
2022/10/15 01:54:51;;;;;;;57.37;2.33;;;;;;;;;;5114262;28;20454;-72
2022/10/15 01:57:19;;;;;;;57.47;2.40;;;;;;;;;;5113742;28;20469;-71
2022/10/15 01:59:46;;;;;;;57.13;2.50;;;;;;;;;;5113542;28;20452;-70
2022/10/15 02:02:14;;;;;;;57.00;2.20;;;;;;;;;;5113864;28;20450;-71
2022/10/15 02:04:42;;;;;;;57.03;2.30;;;;;;;;;;5113724;28;20478;-71
2022/10/15 02:07:11;;;;;;;57.10;2.30;;;;;;;;;;5113678;28;20469;-71
2022/10/15 02:09:46;;;;;;;58.27;2.40;;;;;;;;;;5112944;28;20982;-71
2022/10/15 02:12:19;;;;;;;57.27;2.20;;;;;;;;;;5113804;28;20445;-71
2022/10/15 02:14:51;;;;;;;57.30;2.50;;;;;;;;;;5113834;28;20437;-71
2022/10/15 02:17:23;;;;;;;57.03;2.30;;;;;;;;;;5113498;28;20986;-70
2022/10/15 02:19:54;;;;;;;57.30;2.30;;;;;;;;;;5113331;28;20442;-71
2022/10/15 02:22:24;;;;;;;57.03;2.40;;;;;;;;;;5113216;28;20449;-71
2022/10/15 02:24:54;;;;;;;57.20;2.27;;;;;;;;;;5113473;28;20530;-70
2022/10/15 02:27:21;;;;;;;57.07;2.20;;;;;;;;;;5113362;28;20466;-71
2022/10/15 02:29:49;;;;;;;57.07;2.20;;;;;;;;;;5112907;28;20999;-70
2022/10/15 02:32:20;;;;;;;57.37;2.80;;;;;;;;;;5112997;28;20450;-71
2022/10/15 02:34:47;;;;;;;63.87;3.53;;;;;;;;;;5113102;28;20460;-71
2022/10/15 02:37:16;;;;;;;57.00;2.30;;;;;;;;;;5113057;28;20475;-72
2022/10/15 02:39:43;;;;;;;57.20;2.30;;;;;;;;;;5112895;28;20446;-71
2022/10/15 02:42:10;;;;;;;57.37;2.30;;;;;;;;;;5112985;28;20452;-71
2022/10/15 02:44:37;;;;;;;57.03;2.40;;;;;;;;;;5112562;28;20487;-71
2022/10/15 02:47:04;;;;;;;57.27;2.30;;;;;;;;;;5113126;28;20469;-71
2022/10/15 02:49:31;;;;;;;56.97;2.27;;;;;;;;;;5112688;28;20953;-71
2022/10/15 02:51:58;;;;;;;57.00;2.30;;;;;;;;;;5112218;28;20460;-72
2022/10/15 02:54:27;;;;;;;57.07;2.30;;;;;;;;;;5112774;28;20452;-71
2022/10/15 02:56:54;;;;;;;56.80;2.13;;;;;;;;;;5112400;28;20491;-71
2022/10/15 02:59:21;;;;;;;57.87;2.50;;;;;;;;;;5112686;28;20441;-71
2022/10/15 03:01:48;;;;;;;57.27;2.30;;;;;;;;;;5113033;27;20446;-71
2022/10/15 03:04:15;;;;;;;57.20;2.30;;;;;;;;;;5112787;28;20478;-71
2022/10/15 03:06:42;;;;;;;57.07;2.20;;;;;;;;;;5112057;28;20473;-70
2022/10/15 03:09:10;;;;;;;56.77;2.33;;;;;;;;;;5112246;28;20450;-71
2022/10/15 03:11:39;;;;;;;57.27;2.40;;;;;;;;;;5112499;28;20510;-71
2022/10/15 03:14:07;;;;;;;57.10;2.30;;;;;;;;;;5112790;28;20445;-71
2022/10/15 03:16:34;;;;;;;57.17;2.30;;;;;;;;;;5112537;28;20549;-71
2022/10/15 03:19:01;;;;;;;60.93;2.50;;;;;;;;;;5111937;28;20453;-70
2022/10/15 03:21:29;;;;;;;57.80;2.40;;;;;;;;;;5112464;28;20457;-71
2022/10/15 03:23:56;;;;;;;56.77;2.17;;;;;;;;;;5112274;28;20473;-71
2022/10/15 03:26:24;;;;;;;57.20;2.30;;;;;;;;;;5112555;28;20472;-71
2022/10/15 03:28:52;;;;;;;56.87;2.20;;;;;;;;;;5112140;28;20792;-71
2022/10/15 03:31:19;;;;;;;56.87;2.20;;;;;;;;;;5112162;28;20445;-71
2022/10/15 03:33:46;;;;;;;57.07;2.23;;;;;;;;;;5112136;28;20449;-71
2022/10/15 03:36:13;;;;;;;56.97;2.20;;;;;;;;;;5112448;28;20465;-71
2022/10/15 03:38:40;;;;;;;56.87;2.20;;;;;;;;;;5111874;28;20446;-71
2022/10/15 03:41:07;;;;;;;56.97;2.33;;;;;;;;;;5111921;28;20445;-71
2022/10/15 03:43:34;;;;;;;57.13;2.60;;;;;;;;;;5112263;28;20810;-72
2022/10/15 03:46:04;;;;;;;57.17;2.40;;;;;;;;;;5112292;28;20769;-71
2022/10/15 03:48:31;;;;;;;56.77;2.30;;;;;;;;;;5112026;28;20446;-71
2022/10/15 03:50:58;;;;;;;57.23;2.40;;;;;;;;;;5111925;28;20446;-71
2022/10/15 03:53:25;;;;;;;58.77;2.50;;;;;;;;;;5111889;28;20870;-71
2022/10/15 03:55:52;;;;;;;57.10;2.40;;;;;;;;;;5112249;28;20476;-71
2022/10/15 03:58:19;;;;;;;57.50;2.70;;;;;;;;;;5111941;28;20452;-71
2022/10/15 04:00:46;;;;;;;57.30;2.30;;;;;;;;;;5111816;28;20449;-72
2022/10/15 04:03:15;;;;;;;57.13;2.50;;;;;;;;;;5113672;28;20445;-71
2022/10/15 04:05:43;;;;;;;56.97;2.37;;;;;;;;;;5115546;28;20492;-72
2022/10/15 04:08:10;;;;;;;56.97;2.27;;;;;;;;;;5116262;28;20820;-71
2022/10/15 04:10:37;;;;;;;57.00;2.20;;;;;;;;;;5115903;28;20461;-70
2022/10/15 04:13:04;;;;;;;57.17;2.30;;;;;;;;;;5115924;28;20456;-71
2022/10/15 04:15:31;;;;;;;57.17;2.47;;;;;;;;;;5115379;28;20468;-71
2022/10/15 04:17:58;;;;;;;56.97;2.40;;;;;;;;;;5115698;28;20449;-71
2022/10/15 04:20:27;;;;;;;57.07;2.30;;;;;;;;;;5115720;28;20968;-71
2022/10/15 04:22:54;;;;;;;57.03;2.30;;;;;;;;;;5115952;28;20445;-71
2022/10/15 04:25:21;;;;;;;56.97;2.40;;;;;;;;;;5115589;28;21199;-72
2022/10/15 04:27:48;;;;;;;57.13;2.60;;;;;;;;;;5115435;28;20446;-71
2022/10/15 04:30:15;;;;;;;57.07;2.30;;;;;;;;;;5115320;28;20452;-71
2022/10/15 04:32:42;;;;;;;57.20;2.20;;;;;;;;;;5115580;28;20450;-71
2022/10/15 04:35:09;;;;;;;56.87;2.50;;;;;;;;;;5115514;28;21016;-72
2022/10/15 04:37:38;;;;;;;57.20;2.50;;;;;;;;;;5115700;28;20445;-70
2022/10/15 04:40:05;;;;;;;57.03;2.27;;;;;;;;;;5114995;27;20449;-71
2022/10/15 04:42:33;;;;;;;56.97;2.20;;;;;;;;;;5115486;28;20445;-71
2022/10/15 04:45:00;;;;;;;57.10;2.50;;;;;;;;;;5115348;27;20480;-71
2022/10/15 04:47:27;;;;;;;57.07;2.50;;;;;;;;;;5115261;28;20467;-71
2022/10/15 04:49:54;;;;;;;56.80;2.20;;;;;;;;;;5114867;28;20508;-71
2022/10/15 04:52:21;;;;;;;56.87;2.33;;;;;;;;;;5115304;28;20828;-71
2022/10/15 04:54:50;;;;;;;57.23;2.40;;;;;;;;;;5115384;28;20441;-71
2022/10/15 04:57:17;;;;;;;56.83;2.20;;;;;;;;;;5115102;28;20465;-71
2022/10/15 04:59:44;;;;;;;57.60;2.70;;;;;;;;;;5114666;28;20449;-71
2022/10/15 05:02:11;;;;;;;57.20;2.40;;;;;;;;;;5114878;28;20441;-71
2022/10/15 05:04:38;;;;;;;56.90;2.33;;;;;;;;;;5114859;28;20872;-71
2022/10/15 05:07:06;;;;;;;56.97;2.60;;;;;;;;;;5114877;27;20473;-71
2022/10/15 05:09:33;;;;;;;57.07;2.70;;;;;;;;;;5114804;27;20453;-71
2022/10/15 05:12:01;;;;;;;57.07;2.30;;;;;;;;;;5114948;28;20798;-71
2022/10/15 05:14:28;;;;;;;56.90;2.20;;;;;;;;;;5113598;28;20963;-71
2022/10/15 05:16:56;;;;;;;56.97;2.40;;;;;;;;;;5114888;28;20468;-71
2022/10/15 05:19:23;;;;;;;57.13;2.63;;;;;;;;;;5114534;28;20445;-71
2022/10/15 05:21:50;;;;;;;57.27;2.43;;;;;;;;;;5114652;27;20946;-71
2022/10/15 05:24:17;;;;;;;57.13;2.53;;;;;;;;;;5114361;28;20480;-71
2022/10/15 05:26:44;;;;;;;56.97;2.40;;;;;;;;;;5114357;28;20470;-71
2022/10/15 05:29:12;;;;;;;57.17;2.33;;;;;;;;;;5114430;28;20802;-71
2022/10/15 05:31:40;;;;;;;57.30;2.40;;;;;;;;;;5114664;28;20449;-71
2022/10/15 05:34:08;;;;;;;57.03;2.33;;;;;;;;;;5114434;28;20462;-71
2022/10/15 05:36:35;;;;;;;57.03;2.30;;;;;;;;;;5113924;28;20473;-71
2022/10/15 05:39:09;;;;;;;57.40;2.70;;;;;;;;;;5113745;28;20459;-71
2022/10/15 05:41:36;;;;;;;57.50;2.70;;;;;;;;;;5113773;28;20503;-71
2022/10/15 05:44:03;;;;;;;56.83;2.23;;;;;;;;;;5114362;28;20449;-72
2022/10/15 05:46:32;;;;;;;57.40;3.00;;;;;;;;;;5114263;28;20478;-71
2022/10/15 05:48:59;;;;;;;57.27;2.30;;;;;;;;;;5113496;28;20750;-71
2022/10/15 05:51:27;;;;;;;57.33;2.30;;;;;;;;;;5113703;28;20452;-71
2022/10/15 05:53:54;;;;;;;57.07;2.30;;;;;;;;;;5113563;27;20456;-71
2022/10/15 05:56:21;;;;;;;57.10;2.47;;;;;;;;;;5114074;28;20506;-71
2022/10/15 05:58:49;;;;;;;57.13;2.27;;;;;;;;;;5113790;28;20450;-71
2022/10/15 06:01:16;;;;;;;57.57;2.50;;;;;;;;;;5113362;28;20446;-71
2022/10/15 06:03:44;;;;;;;56.97;2.20;;;;;;;;;;5113697;28;20442;-71
2022/10/15 06:06:15;;;;;;;57.40;2.37;;;;;;;;;;5113738;28;20499;-71
2022/10/15 06:08:42;;;;;;;56.97;2.37;;;;;;;;;;5113421;27;20476;-71
2022/10/15 06:11:09;;;;;;;57.30;2.50;;;;;;;;;;5113951;28;20445;-71
2022/10/15 06:13:38;;;;;;;57.07;2.30;;;;;;;;;;5113146;28;20454;-72
2022/10/15 06:16:05;;;;;;;57.07;2.30;;;;;;;;;;5113621;28;20461;-71
2022/10/15 06:18:32;;;;;;;57.07;2.20;;;;;;;;;;5113507;27;20454;-71
2022/10/15 06:21:00;;;;;;;57.47;2.37;;;;;;;;;;5113431;28;20468;-71
2022/10/15 06:23:28;;;;;;;56.90;2.50;;;;;;;;;;5113506;28;20473;-71
2022/10/15 06:25:55;;;;;;;57.27;2.53;;;;;;;;;;5112461;28;20482;-72
2022/10/15 06:28:22;;;;;;;56.87;2.60;;;;;;;;;;5112898;28;20449;-71
2022/10/15 06:30:49;;;;;;;57.30;2.30;;;;;;;;;;5113357;28;20578;-71
2022/10/15 06:33:16;;;;;;;57.20;2.50;;;;;;;;;;5113325;28;20456;-71
2022/10/15 06:35:43;;;;;;;57.07;2.40;;;;;;;;;;5112926;28;20997;-71
2022/10/15 06:38:12;;;;;;;57.27;2.63;;;;;;;;;;5113357;28;20452;-71
2022/10/15 06:40:39;;;;;;;57.40;2.70;;;;;;;;;;5113096;28;20448;-72
2022/10/15 06:43:07;;;;;;;57.30;2.60;;;;;;;;;;5113070;28;20446;-71
2022/10/15 06:45:36;;;;;;;57.17;2.50;;;;;;;;;;5109843;28;20489;-70
2022/10/15 06:48:04;;;;;;;57.10;2.30;;;;;;;;;;5111237;28;20450;-70
2022/10/15 06:50:31;;;;;;;57.33;2.40;;;;;;;;;;5111374;28;20453;-70
2022/10/15 06:52:58;;;;;;;57.33;2.40;;;;;;;;;;5112891;28;20529;-71
2022/10/15 06:55:27;;;;;;;57.33;2.33;;;;;;;;;;5112673;27;20458;-71
2022/10/15 06:57:55;;;;;;;57.50;2.40;;;;;;;;;;5112922;28;20501;-70
2022/10/15 07:00:22;;;;;;;57.33;2.30;;;;;;;;;;5112483;28;20446;-71
2022/10/15 07:02:49;;;;;;;57.37;2.70;;;;;;;;;;5112725;28;20869;-70
2022/10/15 07:05:16;;;;;;;57.20;2.37;;;;;;;;;;5113049;28;20564;-71
2022/10/15 07:07:43;;;;;;;57.70;2.60;;;;;;;;;;5112446;28;20838;-71
2022/10/15 07:10:10;;;;;;;57.37;2.20;;;;;;;;;;5112424;28;20480;-71
2022/10/15 07:12:39;;;;;;;57.23;2.30;;;;;;;;;;5112660;28;20449;-71
2022/10/15 07:15:06;;;;;;;57.13;2.30;;;;;;;;;;5112392;28;20824;-71
2022/10/15 07:17:34;;;;;;;57.37;2.50;;;;;;;;;;5112689;28;20528;-71
2022/10/15 07:20:01;;;;;;;57.40;2.73;;;;;;;;;;5111998;28;20454;-71
2022/10/15 07:22:28;;;;;;;57.17;2.30;;;;;;;;;;5112432;28;20949;-71
2022/10/15 07:24:55;;;;;;;57.40;2.50;;;;;;;;;;5112419;28;20504;-71
2022/10/15 07:27:22;;;;;;;57.80;2.60;;;;;;;;;;5112391;28;20494;-71
2022/10/15 07:29:50;;;;;;;56.97;2.20;;;;;;;;;;5111619;28;20446;-71
2022/10/15 07:32:18;;;;;;;57.20;2.50;;;;;;;;;;5112286;28;20968;-72
2022/10/15 07:34:45;;;;;;;57.17;2.30;;;;;;;;;;5112353;28;20467;-71
2022/10/15 07:37:12;;;;;;;57.07;2.47;;;;;;;;;;5112172;28;20635;-71
2022/10/15 07:39:39;;;;;;;57.47;2.70;;;;;;;;;;5111863;28;20449;-71
2022/10/15 07:42:06;;;;;;;57.17;2.20;;;;;;;;;;5111776;28;20438;-71
2022/10/15 07:44:33;;;;;;;57.47;2.70;;;;;;;;;;5112327;28;20442;-71
2022/10/15 07:47:01;;;;;;;57.13;2.30;;;;;;;;;;5112229;28;21043;-71
2022/10/15 07:49:28;;;;;;;57.27;2.30;;;;;;;;;;5112049;28;20445;-71
2022/10/15 07:51:56;;;;;;;57.53;2.37;;;;;;;;;;5112175;28;20808;-71
2022/10/15 07:54:23;;;;;;;57.50;2.40;;;;;;;;;;5111721;28;20445;-71
2022/10/15 07:56:50;;;;;;;57.63;2.60;;;;;;;;;;5111969;28;20464;-72
2022/10/15 07:59:17;;;;;;;57.27;2.70;;;;;;;;;;5111932;28;20438;-71
2022/10/15 08:01:44;;;;;;;57.33;2.07;;;;;;;;;;5112123;28;20540;-72
2022/10/15 08:04:12;;;;;;;57.37;2.23;;;;;;;;;;5111862;28;20817;-70
2022/10/15 08:06:39;;;;;;;57.57;2.70;;;;;;;;;;5111751;28;20485;-72
2022/10/15 08:09:07;;;;;;;58.40;2.67;;;;;;;;;;5111721;28;20603;-71
2022/10/15 08:11:34;;;;;;;58.83;2.53;;;;;;;;;;5112149;28;20446;-71
2022/10/15 08:14:02;;;;;;;58.10;3.00;;;;;;;;;;5112055;28;20845;-71
2022/10/15 08:16:29;;;;;;;60.67;3.30;;;;;;;;;;5111426;28;20506;-72
2022/10/15 08:18:58;;;;;;;57.40;2.40;;;;;;;;;;5111568;28;20462;-71
2022/10/15 08:21:26;;;;;;;57.17;2.30;;;;;;;;;;5111900;28;20964;-71
2022/10/15 08:23:53;;;;;;;57.43;2.33;;;;;;;;;;5111737;28;20446;-71
2022/10/15 08:26:21;;;;;;;57.43;2.40;;;;;;;;;;5111859;28;20489;-71
2022/10/15 08:28:48;;;;;;;57.77;2.60;;;;;;;;;;5111340;28;20930;-71
2022/10/15 08:31:15;;;;;;;58.13;3.20;;;;;;;;;;5112125;28;20446;-71
2022/10/15 08:33:44;;;;;;;57.63;2.53;;;;;;;;;;5111777;28;20865;-71
2022/10/15 08:36:11;;;;;;;58.10;2.70;;;;;;;;;;5111706;28;20482;-71
2022/10/15 08:38:40;;;;;;;57.90;2.90;;;;;;;;;;5111000;28;20441;-71
2022/10/15 08:41:14;;;;;;;57.63;2.60;;;;;;;;;;5111676;28;20473;-71
2022/10/15 08:43:43;;;;;;;57.80;2.90;;;;;;;;;;5111733;28;20445;-71
2022/10/15 08:46:13;;;;;;;58.30;2.57;;;;;;;;;;5111552;28;20493;-71
2022/10/15 08:48:43;;;;;;;57.80;2.57;;;;;;;;;;5111332;28;20446;-71
2022/10/15 08:51:11;;;;;;;57.37;2.53;;;;;;;;;;5113938;28;20440;-71
2022/10/15 08:53:41;;;;;;;57.27;2.33;;;;;;;;;;5115512;28;20468;-71
2022/10/15 08:56:18;;;;;;;57.60;2.60;;;;;;;;;;5115319;28;20549;-71
2022/10/15 08:58:47;;;;;;;57.37;2.20;;;;;;;;;;5114759;28;20440;-72
2022/10/15 09:01:18;;;;;;;57.40;2.50;;;;;;;;;;5115111;28;20706;-71
2022/10/15 09:03:50;;;;;;;57.53;2.53;;;;;;;;;;5115066;28;20797;-71
2022/10/15 09:06:20;;;;;;;57.47;2.50;;;;;;;;;;5115065;28;20493;-71
2022/10/15 09:08:53;;;;;;;57.70;2.40;;;;;;;;;;5114744;28;20445;-70
2022/10/15 09:11:23;;;;;;;57.47;2.47;;;;;;;;;;5114947;28;20450;-72
2022/10/15 09:13:51;;;;;;;57.27;2.37;;;;;;;;;;5114978;28;20632;-71
2022/10/15 09:16:19;;;;;;;58.27;2.70;;;;;;;;;;5114729;28;20462;-71
2022/10/15 09:18:47;;;;;;;57.90;2.50;;;;;;;;;;5114405;28;20453;-70
2022/10/15 09:21:15;;;;;;;57.17;2.40;;;;;;;;;;5114025;28;20970;-71
2022/10/15 09:23:43;;;;;;;57.73;2.70;;;;;;;;;;5114401;28;20456;-71
2022/10/15 09:26:17;;;;;;;61.80;2.83;;;;;;;;;;5114440;28;20481;-73
2022/10/15 09:28:48;;;;;;;58.17;2.80;;;;;;;;;;5113337;28;20467;-71
2022/10/15 09:31:18;;;;;;;59.13;2.40;;;;;;;;;;5114504;28;20461;-70
2022/10/15 09:33:47;;;;;;;61.87;3.47;;;;;;;;;;5114161;28;20464;-71
2022/10/15 09:36:19;;;;;;;62.33;3.37;;;;;;;;;;5114147;28;20978;-72
2022/10/15 09:38:54;;;;;;;57.30;2.50;;;;;;;;;;5113997;28;20445;-71
2022/10/15 09:41:25;;;;;;;57.60;2.60;;;;;;;;;;5113697;28;20455;-72
2022/10/15 09:43:53;;;;;;;57.33;2.50;;;;;;;;;;5114258;28;20456;-71
2022/10/15 09:46:20;;;;;;;59.50;3.27;;;;;;;;;;5114129;28;20487;-71
2022/10/15 09:48:50;;;;;;;57.37;2.30;;;;;;;;;;5113752;28;20946;-72
2022/10/15 09:51:22;;;;;;;57.90;2.57;;;;;;;;;;5113483;28;20456;-71
2022/10/15 09:53:52;;;;;;;58.03;2.50;;;;;;;;;;5113696;28;20453;-71
2022/10/15 09:56:20;;;;;;;57.27;2.57;;;;;;;;;;5113178;28;20545;-71
2022/10/15 09:58:52;;;;;;;57.57;2.87;;;;;;;;;;5113417;28;20446;-71
2022/10/15 10:01:20;;;;;;;62.07;2.87;;;;;;;;;;5112979;28;20448;-71
2022/10/15 10:03:49;;;;;;;58.20;2.70;;;;;;;;;;5113699;28;20973;-70
2022/10/15 10:06:16;;;;;;;57.70;2.60;;;;;;;;;;5113570;28;20858;-70
2022/10/15 10:08:48;;;;;;;57.50;2.50;;;;;;;;;;5113595;27;20441;-70
2022/10/15 10:11:15;;;;;;;58.03;2.80;;;;;;;;;;5113696;28;20445;-70
2022/10/15 10:13:45;;;;;;;57.57;2.43;;;;;;;;;;5112815;28;20817;-71
2022/10/15 10:16:14;;;;;;;57.60;2.37;;;;;;;;;;5114323;28;20457;-70
2022/10/15 10:18:49;;;;;;;57.47;2.67;;;;;;;;;;5112751;28;20803;-70
2022/10/15 10:21:23;;;;;;;57.90;2.60;;;;;;;;;;5113335;28;20791;-70
2022/10/15 10:23:50;;;;;;;57.17;2.20;;;;;;;;;;5113622;28;20441;-70
2022/10/15 10:26:17;;;;;;;57.57;2.40;;;;;;;;;;5113039;28;20485;-71
2022/10/15 10:28:47;;;;;;;58.07;2.90;;;;;;;;;;5112790;27;20460;-71
2022/10/15 10:31:15;;;;;;;57.53;2.47;;;;;;;;;;5112809;27;20452;-71
2022/10/15 10:33:44;;;;;;;57.63;2.37;;;;;;;;;;5113511;28;20465;-71
2022/10/15 10:36:20;;;;;;;57.57;2.43;;;;;;;;;;5113261;28;20473;-71
2022/10/15 10:38:55;;;;;;;57.80;2.47;;;;;;;;;;5112859;28;20445;-71
2022/10/15 10:41:23;;;;;;;57.57;2.47;;;;;;;;;;5112556;28;20441;-71
2022/10/15 10:43:53;;;;;;;58.30;2.40;;;;;;;;;;5112012;28;20997;-70
2022/10/15 10:46:23;;;;;;;57.33;2.10;;;;;;;;;;5112882;28;20895;-71
2022/10/15 10:48:50;;;;;;;57.17;2.00;;;;;;;;;;5112533;28;20449;-71
2022/10/15 10:51:19;;;;;;;57.80;2.20;;;;;;;;;;5112791;28;20832;-70
2022/10/15 10:53:51;;;;;;;57.77;2.30;;;;;;;;;;5112769;28;20452;-71
2022/10/15 10:56:20;;;;;;;57.23;2.13;;;;;;;;;;5112633;28;20457;-72
2022/10/15 10:58:49;;;;;;;57.07;2.10;;;;;;;;;;5112299;28;20444;-72
2022/10/15 11:01:16;;;;;;;57.47;2.17;;;;;;;;;;5112924;28;20445;-71
2022/10/15 11:03:47;;;;;;;57.90;2.20;;;;;;;;;;5112734;28;20485;-72
2022/10/15 11:06:22;;;;;;;57.57;2.30;;;;;;;;;;5112621;28;20861;-72
2022/10/15 11:08:55;;;;;;;59.33;2.30;;;;;;;;;;5112343;28;20449;-71
2022/10/15 11:11:24;;;;;;;57.70;2.30;;;;;;;;;;5112858;28;20502;-71
2022/10/15 11:13:59;;;;;;;57.43;2.00;;;;;;;;;;5111572;27;20449;-72
2022/10/15 11:16:31;;;;;;;58.50;2.40;;;;;;;;;;5113220;28;20469;-71
2022/10/15 11:19:07;;;;;;;57.70;2.20;;;;;;;;;;5112286;28;20481;-72
2022/10/15 11:21:41;;;;;;;57.67;2.37;;;;;;;;;;5112530;28;20523;-72
2022/10/15 11:24:15;;;;;;;57.57;2.00;;;;;;;;;;5112439;28;20957;-71
2022/10/15 11:26:49;;;;;;;57.80;2.20;;;;;;;;;;5112063;28;20485;-72
2022/10/15 11:29:19;;;;;;;56.97;2.30;;;;;;;;;;5112188;28;20452;-71
2022/10/15 11:31:48;;;;;;;58.10;2.17;;;;;;;;;;5112406;28;20449;-71
2022/10/15 11:34:26;;;;;;;57.37;2.20;;;;;;;;;;5112350;28;20461;-71
2022/10/15 11:36:59;;;;;;;59.80;2.20;;;;;;;;;;5111761;28;20465;-71
2022/10/15 11:39:47;;;;;;;60.20;2.53;;;;;;;;;;5112038;28;20448;-72
2022/10/15 11:42:16;;;;;;;58.40;2.00;;;;;;;;;;5112506;28;20453;-72
2022/10/15 11:44:55;;;;;;;57.53;1.97;;;;;;;;;;5112554;28;20450;-72
2022/10/15 11:47:27;;;;;;;57.27;2.00;;;;;;;;;;5111677;28;20496;-70
2022/10/15 11:50:01;;;;;;;58.10;1.90;;;;;;;;;;5111507;28;20453;-71
2022/10/15 11:52:37;;;;;;;57.60;2.20;;;;;;;;;;5112113;28;20664;-71
2022/10/15 11:55:08;;;;;;;57.50;2.00;;;;;;;;;;5111935;28;20444;-71
2022/10/15 11:57:38;;;;;;;57.27;2.30;;;;;;;;;;5112109;28;20941;-69
2022/10/15 12:00:13;;;;;;;59.03;2.97;;;;;;;;;;5111018;28;20450;-70
2022/10/15 12:02:40;;;;;;;57.97;2.30;;;;;;;;;;5111959;28;20449;-70
2022/10/15 12:05:10;;;;;;;57.87;2.20;;;;;;;;;;5112075;28;20448;-71
2022/10/15 12:07:40;;;;;;;58.60;2.73;;;;;;;;;;5112163;28;20871;-70
2022/10/15 12:10:16;;;;;;;59.40;2.30;;;;;;;;;;5111871;28;20802;-71
2022/10/15 12:12:47;;;;;;;57.77;2.20;;;;;;;;;;5111561;28;20532;-71
2022/10/15 12:15:21;;;;;;;57.90;2.33;;;;;;;;;;5111761;28;20450;-71
2022/10/15 12:17:51;;;;;;;57.57;2.33;;;;;;;;;;5112011;28;20938;-70
2022/10/15 12:20:21;;;;;;;57.43;2.10;;;;;;;;;;5111690;28;20437;-71
2022/10/15 12:22:55;;;;;;;57.70;2.00;;;;;;;;;;5111193;28;20493;-71
2022/10/15 12:25:47;;;;;;;57.53;2.10;;;;;;;;;;5113656;28;20471;-71
2022/10/15 12:28:16;;;;;;;58.67;2.20;;;;;;;;;;5100584;28;20489;-70
2022/10/15 12:30:43;;;;;;;57.60;2.10;;;;;;;;;;5115587;28;20449;-70
2022/10/15 12:33:24;;;;;;;57.67;2.20;;;;;;;;;;5115601;28;20454;-71
2022/10/15 12:35:55;;;;;;;57.80;2.40;;;;;;;;;;5115201;28;20469;-70
2022/10/15 12:38:26;;;;;;;57.83;2.33;;;;;;;;;;5115183;28;20450;-71
2022/10/15 12:40:57;;;;;;;57.67;2.07;;;;;;;;;;5115384;28;20449;-71
2022/10/15 12:43:25;;;;;;;57.77;2.30;;;;;;;;;;5115639;28;20442;-71
2022/10/15 12:45:53;;;;;;;57.77;2.30;;;;;;;;;;5115402;28;20469;-71
2022/10/15 12:48:22;;;;;;;57.97;2.40;;;;;;;;;;5114882;28;20505;-71
2022/10/15 12:50:49;;;;;;;58.77;2.40;;;;;;;;;;5114892;28;20445;-71
2022/10/15 12:53:33;;;;;;;57.53;2.30;;;;;;;;;;5115448;28;20455;-71
2022/10/15 12:56:13;;;;;;;57.50;2.60;;;;;;;;;;5115280;28;20861;-71
2022/10/15 12:58:40;;;;;;;58.00;2.50;;;;;;;;;;5114919;28;20442;-71
2022/10/15 13:01:27;;;;;;;58.70;2.50;;;;;;;;;;5114480;28;20441;-71
2022/10/15 13:03:55;;;;;;;61.30;2.67;;;;;;;;;;5115452;28;20442;-71
2022/10/15 13:06:27;;;;;;;58.20;2.50;;;;;;;;;;5115070;28;20469;-72
2022/10/15 13:08:58;;;;;;;58.00;2.53;;;;;;;;;;5114707;28;20456;-72
2022/10/15 13:11:27;;;;;;;58.17;2.90;;;;;;;;;;5114481;28;20467;-73
2022/10/15 13:13:57;;;;;;;57.90;2.50;;;;;;;;;;5115102;28;20453;-72
2022/10/15 13:16:24;;;;;;;58.10;2.40;;;;;;;;;;5114930;27;20991;-72
2022/10/15 13:18:54;;;;;;;57.73;2.20;;;;;;;;;;5114764;27;20445;-72
2022/10/15 13:21:22;;;;;;;57.83;2.67;;;;;;;;;;5114695;28;20958;-72
2022/10/15 13:23:50;;;;;;;57.93;2.50;;;;;;;;;;5114581;28;20492;-71
2022/10/15 13:26:21;;;;;;;58.70;2.50;;;;;;;;;;5114632;28;20468;-71
2022/10/15 13:28:49;;;;;;;57.77;2.53;;;;;;;;;;5114424;28;20496;-71
2022/10/15 13:31:18;;;;;;;57.87;2.33;;;;;;;;;;5114698;28;20445;-71
2022/10/15 13:33:46;;;;;;;57.97;2.30;;;;;;;;;;5114163;28;20464;-71
2022/10/15 13:36:19;;;;;;;58.00;2.50;;;;;;;;;;5113490;28;20832;-71
2022/10/15 13:38:51;;;;;;;58.00;2.60;;;;;;;;;;5114299;28;20441;-71
2022/10/15 13:41:24;;;;;;;57.67;2.50;;;;;;;;;;5114569;28;20441;-71
2022/10/15 13:43:53;;;;;;;57.83;2.50;;;;;;;;;;5114447;28;20441;-71
2022/10/15 13:46:20;;;;;;;57.77;2.73;;;;;;;;;;5113645;28;20584;-71
2022/10/15 13:48:47;;;;;;;57.90;2.67;;;;;;;;;;5113855;28;20496;-71
2022/10/15 13:51:15;;;;;;;57.87;2.63;;;;;;;;;;5114075;28;20450;-72
2022/10/15 13:53:42;;;;;;;58.30;2.80;;;;;;;;;;5114098;28;21028;-71
2022/10/15 13:56:20;;;;;;;58.70;2.77;;;;;;;;;;5114292;28;20469;-71
2022/10/15 13:58:49;;;;;;;66.23;3.00;;;;;;;;;;5113360;28;20446;-71
2022/10/15 14:01:19;;;;;;;57.83;2.87;;;;;;;;;;5113940;28;20449;-72
2022/10/15 14:03:48;;;;;;;57.97;2.90;;;;;;;;;;5114365;28;20445;-72
2022/10/15 14:06:17;;;;;;;58.17;2.40;;;;;;;;;;5113909;28;20493;-72
2022/10/15 14:08:44;;;;;;;57.97;2.50;;;;;;;;;;5113202;28;20481;-72
2022/10/15 14:11:12;;;;;;;57.97;2.53;;;;;;;;;;5113669;28;20445;-71
2022/10/15 14:13:44;;;;;;;57.83;2.63;;;;;;;;;;5113951;27;20441;-71
2022/10/15 14:16:15;;;;;;;57.83;2.70;;;;;;;;;;5113383;28;20981;-71
2022/10/15 14:18:44;;;;;;;57.97;2.60;;;;;;;;;;5113334;28;20806;-71
2022/10/15 14:21:11;;;;;;;58.13;2.70;;;;;;;;;;5113363;28;20450;-71
2022/10/15 14:23:39;;;;;;;58.20;2.80;;;;;;;;;;5113694;28;20452;-71
2022/10/15 14:26:06;;;;;;;58.90;2.90;;;;;;;;;;5113664;28;20465;-71
2022/10/15 14:28:34;;;;;;;58.70;2.63;;;;;;;;;;5113061;28;20503;-71
2022/10/15 14:31:01;;;;;;;58.30;3.23;;;;;;;;;;5112857;28;20935;-71
2022/10/15 14:33:34;;;;;;;59.40;2.70;;;;;;;;;;5113361;28;20449;-71
2022/10/15 14:36:08;;;;;;;57.87;2.70;;;;;;;;;;5113399;28;20492;-71
2022/10/15 14:38:35;;;;;;;59.90;2.70;;;;;;;;;;5113007;28;20984;-71
2022/10/15 14:41:06;;;;;;;59.00;2.90;;;;;;;;;;5112640;28;20449;-71
2022/10/15 14:43:34;;;;;;;58.03;2.60;;;;;;;;;;5113151;28;20452;-71